sensor_id;sensor_type;location;lat;lon;timestamp;P1;durP1;ratioP1;P2;durP2;ratioP2
6823;SDS011;58633;49.470;11.004;2023-07-08T00:00:19;5.10;;;4.60;;
6823;SDS011;58633;49.470;11.004;2023-07-08T00:02:46;11.52;;;4.93;;
6823;SDS011;58633;49.470;11.004;2023-07-08T00:05:13;6.38;;;5.05;;
6823;SDS011;58633;49.470;11.004;2023-07-08T00:07:40;7.68;;;5.00;;
6823;SDS011;58633;49.470;11.004;2023-07-08T00:10:20;6.80;;;4.65;;
6823;SDS011;58633;49.470;11.004;2023-07-08T00:12:49;6.38;;;4.55;;
6823;SDS011;58633;49.470;11.004;2023-07-08T00:15:21;7.60;;;5.15;;
6823;SDS011;58633;49.470;11.004;2023-07-08T00:17:49;8.27;;;4.80;;
6823;SDS011;58633;49.470;11.004;2023-07-08T00:20:17;5.78;;;4.18;;
6823;SDS011;58633;49.470;11.004;2023-07-08T00:22:48;5.80;;;4.65;;
6823;SDS011;58633;49.470;11.004;2023-07-08T00:25:15;6.57;;;4.63;;
6823;SDS011;58633;49.470;11.004;2023-07-08T00:27:41;8.73;;;4.90;;
6823;SDS011;58633;49.470;11.004;2023-07-08T00:30:49;5.50;;;4.50;;
6823;SDS011;58633;49.470;11.004;2023-07-08T00:32:56;5.65;;;4.40;;
6823;SDS011;58633;49.470;11.004;2023-07-08T00:35:26;8.82;;;4.85;;
6823;SDS011;58633;49.470;11.004;2023-07-08T00:37:56;5.50;;;4.35;;
6823;SDS011;58633;49.470;11.004;2023-07-08T00:40:28;5.38;;;4.35;;
6823;SDS011;58633;49.470;11.004;2023-07-08T00:42:56;5.10;;;4.05;;
6823;SDS011;58633;49.470;11.004;2023-07-08T00:45:32;5.32;;;4.20;;
6823;SDS011;58633;49.470;11.004;2023-07-08T00:48:08;6.03;;;4.38;;
6823;SDS011;58633;49.470;11.004;2023-07-08T00:50:48;7.68;;;4.45;;
6823;SDS011;58633;49.470;11.004;2023-07-08T00:55:50;6.72;;;4.38;;
6823;SDS011;58633;49.470;11.004;2023-07-08T00:58:19;5.28;;;4.72;;
6823;SDS011;58633;49.470;11.004;2023-07-08T01:00:47;6.63;;;4.78;;
6823;SDS011;58633;49.470;11.004;2023-07-08T01:03:14;6.65;;;4.78;;
6823;SDS011;58633;49.470;11.004;2023-07-08T01:05:41;5.18;;;3.90;;
6823;SDS011;58633;49.470;11.004;2023-07-08T01:08:08;5.78;;;4.25;;
6823;SDS011;58633;49.470;11.004;2023-07-08T01:10:45;5.68;;;4.03;;
6823;SDS011;58633;49.470;11.004;2023-07-08T01:13:15;5.10;;;4.38;;
6823;SDS011;58633;49.470;11.004;2023-07-08T01:15:42;8.13;;;4.28;;
6823;SDS011;58633;49.470;11.004;2023-07-08T01:18:10;5.65;;;4.50;;
6823;SDS011;58633;49.470;11.004;2023-07-08T01:20:41;9.27;;;4.72;;
6823;SDS011;58633;49.470;11.004;2023-07-08T01:23:07;6.43;;;4.70;;
6823;SDS011;58633;49.470;11.004;2023-07-08T01:25:34;5.90;;;4.32;;
6823;SDS011;58633;49.470;11.004;2023-07-08T01:28:00;5.10;;;4.25;;
6823;SDS011;58633;49.470;11.004;2023-07-08T01:30:29;5.53;;;4.70;;
6823;SDS011;58633;49.470;11.004;2023-07-08T01:32:56;4.60;;;4.20;;
6823;SDS011;58633;49.470;11.004;2023-07-08T01:35:25;5.07;;;4.20;;
6823;SDS011;58633;49.470;11.004;2023-07-08T01:37:52;6.55;;;4.28;;
6823;SDS011;58633;49.470;11.004;2023-07-08T01:40:32;7.43;;;4.38;;
6823;SDS011;58633;49.470;11.004;2023-07-08T01:43:00;5.53;;;4.03;;
6823;SDS011;58633;49.470;11.004;2023-07-08T01:45:27;6.55;;;4.38;;
6823;SDS011;58633;49.470;11.004;2023-07-08T01:47:57;4.97;;;4.07;;
6823;SDS011;58633;49.470;11.004;2023-07-08T01:50:27;5.18;;;4.55;;
6823;SDS011;58633;49.470;11.004;2023-07-08T01:52:54;5.45;;;4.32;;
6823;SDS011;58633;49.470;11.004;2023-07-08T01:55:23;7.03;;;4.65;;
6823;SDS011;58633;49.470;11.004;2023-07-08T01:57:52;5.38;;;4.68;;
6823;SDS011;58633;49.470;11.004;2023-07-08T02:00:19;6.20;;;4.50;;
6823;SDS011;58633;49.470;11.004;2023-07-08T02:02:45;5.97;;;4.57;;
6823;SDS011;58633;49.470;11.004;2023-07-08T02:05:11;5.28;;;4.40;;
6823;SDS011;58633;49.470;11.004;2023-07-08T02:07:36;5.13;;;4.25;;
6823;SDS011;58633;49.470;11.004;2023-07-08T02:10:02;5.70;;;4.65;;
6823;SDS011;58633;49.470;11.004;2023-07-08T02:12:28;5.40;;;4.38;;
6823;SDS011;58633;49.470;11.004;2023-07-08T02:14:53;4.90;;;4.00;;
6823;SDS011;58633;49.470;11.004;2023-07-08T02:17:19;5.95;;;4.32;;
6823;SDS011;58633;49.470;11.004;2023-07-08T02:19:44;7.22;;;5.07;;
6823;SDS011;58633;49.470;11.004;2023-07-08T02:22:10;5.93;;;4.30;;
6823;SDS011;58633;49.470;11.004;2023-07-08T02:24:36;5.78;;;4.22;;
6823;SDS011;58633;49.470;11.004;2023-07-08T02:27:02;5.35;;;4.28;;
6823;SDS011;58633;49.470;11.004;2023-07-08T02:29:27;6.18;;;4.57;;
6823;SDS011;58633;49.470;11.004;2023-07-08T02:31:53;5.35;;;4.38;;
6823;SDS011;58633;49.470;11.004;2023-07-08T02:34:18;6.57;;;4.65;;
6823;SDS011;58633;49.470;11.004;2023-07-08T02:36:44;4.90;;;4.15;;
6823;SDS011;58633;49.470;11.004;2023-07-08T02:39:10;5.05;;;4.45;;
6823;SDS011;58633;49.470;11.004;2023-07-08T02:41:36;6.50;;;4.50;;
6823;SDS011;58633;49.470;11.004;2023-07-08T02:44:02;6.22;;;4.28;;
6823;SDS011;58633;49.470;11.004;2023-07-08T02:46:27;6.18;;;4.65;;
6823;SDS011;58633;49.470;11.004;2023-07-08T02:48:53;7.93;;;4.57;;
6823;SDS011;58633;49.470;11.004;2023-07-08T02:51:18;6.97;;;4.47;;
6823;SDS011;58633;49.470;11.004;2023-07-08T02:53:44;6.05;;;4.45;;
6823;SDS011;58633;49.470;11.004;2023-07-08T02:56:09;6.10;;;4.30;;
6823;SDS011;58633;49.470;11.004;2023-07-08T02:58:35;6.00;;;4.35;;
6823;SDS011;58633;49.470;11.004;2023-07-08T03:01:01;6.68;;;4.47;;
6823;SDS011;58633;49.470;11.004;2023-07-08T03:03:27;7.88;;;4.70;;
6823;SDS011;58633;49.470;11.004;2023-07-08T03:05:56;6.07;;;4.57;;
6823;SDS011;58633;49.470;11.004;2023-07-08T03:08:24;5.90;;;4.68;;
6823;SDS011;58633;49.470;11.004;2023-07-08T03:10:54;6.70;;;4.78;;
6823;SDS011;58633;49.470;11.004;2023-07-08T03:13:28;5.57;;;4.40;;
6823;SDS011;58633;49.470;11.004;2023-07-08T03:15:54;7.00;;;4.55;;
6823;SDS011;58633;49.470;11.004;2023-07-08T03:18:21;6.90;;;4.88;;
6823;SDS011;58633;49.470;11.004;2023-07-08T03:20:48;5.97;;;4.70;;
6823;SDS011;58633;49.470;11.004;2023-07-08T03:23:14;7.40;;;4.93;;
6823;SDS011;58633;49.470;11.004;2023-07-08T03:25:40;6.70;;;4.78;;
6823;SDS011;58633;49.470;11.004;2023-07-08T03:28:06;7.15;;;4.70;;
6823;SDS011;58633;49.470;11.004;2023-07-08T03:30:32;7.20;;;5.20;;
6823;SDS011;58633;49.470;11.004;2023-07-08T03:32:59;7.88;;;4.78;;
6823;SDS011;58633;49.470;11.004;2023-07-08T03:35:25;7.25;;;4.78;;
6823;SDS011;58633;49.470;11.004;2023-07-08T03:37:51;6.35;;;4.97;;
6823;SDS011;58633;49.470;11.004;2023-07-08T03:40:17;5.60;;;4.40;;
6823;SDS011;58633;49.470;11.004;2023-07-08T03:42:43;7.63;;;4.50;;
6823;SDS011;58633;49.470;11.004;2023-07-08T03:45:09;7.32;;;4.97;;
6823;SDS011;58633;49.470;11.004;2023-07-08T03:47:35;5.97;;;4.75;;
6823;SDS011;58633;49.470;11.004;2023-07-08T03:50:00;6.28;;;5.10;;
6823;SDS011;58633;49.470;11.004;2023-07-08T03:52:26;5.72;;;4.72;;
6823;SDS011;58633;49.470;11.004;2023-07-08T03:54:51;7.10;;;5.30;;
6823;SDS011;58633;49.470;11.004;2023-07-08T03:57:17;7.35;;;4.90;;
6823;SDS011;58633;49.470;11.004;2023-07-08T03:59:42;8.05;;;5.55;;
6823;SDS011;58633;49.470;11.004;2023-07-08T04:02:10;7.85;;;5.50;;
6823;SDS011;58633;49.470;11.004;2023-07-08T04:04:36;6.80;;;5.10;;
6823;SDS011;58633;49.470;11.004;2023-07-08T04:07:03;6.70;;;4.80;;
6823;SDS011;58633;49.470;11.004;2023-07-08T04:09:29;7.15;;;4.68;;
6823;SDS011;58633;49.470;11.004;2023-07-08T04:11:54;5.50;;;4.90;;
6823;SDS011;58633;49.470;11.004;2023-07-08T04:14:20;6.70;;;4.75;;
6823;SDS011;58633;49.470;11.004;2023-07-08T04:16:48;7.18;;;4.93;;
6823;SDS011;58633;49.470;11.004;2023-07-08T04:19:16;6.72;;;5.63;;
6823;SDS011;58633;49.470;11.004;2023-07-08T04:21:43;6.28;;;4.85;;
6823;SDS011;58633;49.470;11.004;2023-07-08T04:24:10;6.47;;;5.10;;
6823;SDS011;58633;49.470;11.004;2023-07-08T04:26:36;8.77;;;5.25;;
6823;SDS011;58633;49.470;11.004;2023-07-08T04:29:04;7.15;;;5.13;;
6823;SDS011;58633;49.470;11.004;2023-07-08T04:31:40;7.38;;;5.45;;
6823;SDS011;58633;49.470;11.004;2023-07-08T04:34:07;6.80;;;4.70;;
6823;SDS011;58633;49.470;11.004;2023-07-08T04:36:33;13.75;;;5.10;;
6823;SDS011;58633;49.470;11.004;2023-07-08T04:38:59;7.30;;;5.15;;
6823;SDS011;58633;49.470;11.004;2023-07-08T04:41:26;6.82;;;4.97;;
6823;SDS011;58633;49.470;11.004;2023-07-08T04:43:52;7.63;;;5.85;;
6823;SDS011;58633;49.470;11.004;2023-07-08T04:49:02;7.60;;;4.47;;
6823;SDS011;58633;49.470;11.004;2023-07-08T04:51:30;6.15;;;5.30;;
6823;SDS011;58633;49.470;11.004;2023-07-08T04:53:56;7.40;;;4.90;;
6823;SDS011;58633;49.470;11.004;2023-07-08T04:56:21;6.07;;;5.22;;
6823;SDS011;58633;49.470;11.004;2023-07-08T04:58:48;7.82;;;5.40;;
6823;SDS011;58633;49.470;11.004;2023-07-08T05:01:14;7.95;;;5.40;;
6823;SDS011;58633;49.470;11.004;2023-07-08T05:03:39;7.80;;;6.10;;
6823;SDS011;58633;49.470;11.004;2023-07-08T05:06:05;8.95;;;5.18;;
6823;SDS011;58633;49.470;11.004;2023-07-08T05:08:30;10.15;;;5.75;;
6823;SDS011;58633;49.470;11.004;2023-07-08T05:10:56;6.15;;;5.07;;
6823;SDS011;58633;49.470;11.004;2023-07-08T05:13:22;6.47;;;5.32;;
6823;SDS011;58633;49.470;11.004;2023-07-08T05:15:48;6.88;;;5.35;;
6823;SDS011;58633;49.470;11.004;2023-07-08T05:18:14;7.25;;;5.30;;
6823;SDS011;58633;49.470;11.004;2023-07-08T05:20:39;6.72;;;4.88;;
6823;SDS011;58633;49.470;11.004;2023-07-08T05:23:05;5.82;;;4.68;;
6823;SDS011;58633;49.470;11.004;2023-07-08T05:25:32;8.10;;;4.82;;
6823;SDS011;58633;49.470;11.004;2023-07-08T05:27:57;6.50;;;5.22;;
6823;SDS011;58633;49.470;11.004;2023-07-08T05:30:23;9.52;;;4.93;;
6823;SDS011;58633;49.470;11.004;2023-07-08T05:32:48;6.78;;;4.80;;
6823;SDS011;58633;49.470;11.004;2023-07-08T05:35:14;7.35;;;5.07;;
6823;SDS011;58633;49.470;11.004;2023-07-08T05:37:40;8.05;;;4.75;;
6823;SDS011;58633;49.470;11.004;2023-07-08T05:40:07;8.40;;;5.03;;
6823;SDS011;58633;49.470;11.004;2023-07-08T05:42:33;6.40;;;5.00;;
6823;SDS011;58633;49.470;11.004;2023-07-08T05:44:58;7.25;;;4.80;;
6823;SDS011;58633;49.470;11.004;2023-07-08T05:47:24;5.53;;;4.60;;
6823;SDS011;58633;49.470;11.004;2023-07-08T05:49:50;7.18;;;4.65;;
6823;SDS011;58633;49.470;11.004;2023-07-08T05:52:15;7.22;;;5.30;;
6823;SDS011;58633;49.470;11.004;2023-07-08T05:54:41;11.15;;;5.85;;
6823;SDS011;58633;49.470;11.004;2023-07-08T05:57:08;6.72;;;5.18;;
6823;SDS011;58633;49.470;11.004;2023-07-08T05:59:35;14.68;;;8.35;;
6823;SDS011;58633;49.470;11.004;2023-07-08T06:02:02;9.10;;;6.70;;
6823;SDS011;58633;49.470;11.004;2023-07-08T06:04:28;6.50;;;5.60;;
6823;SDS011;58633;49.470;11.004;2023-07-08T06:06:54;7.97;;;5.10;;
6823;SDS011;58633;49.470;11.004;2023-07-08T06:09:19;7.13;;;4.70;;
6823;SDS011;58633;49.470;11.004;2023-07-08T06:11:45;8.27;;;5.07;;
6823;SDS011;58633;49.470;11.004;2023-07-08T06:14:10;8.80;;;5.05;;
6823;SDS011;58633;49.470;11.004;2023-07-08T06:16:36;6.25;;;5.03;;
6823;SDS011;58633;49.470;11.004;2023-07-08T06:19:01;8.15;;;4.95;;
6823;SDS011;58633;49.470;11.004;2023-07-08T06:21:27;6.90;;;5.32;;
6823;SDS011;58633;49.470;11.004;2023-07-08T06:23:53;11.93;;;4.68;;
6823;SDS011;58633;49.470;11.004;2023-07-08T06:26:18;7.25;;;4.55;;
6823;SDS011;58633;49.470;11.004;2023-07-08T06:28:44;7.03;;;5.60;;
6823;SDS011;58633;49.470;11.004;2023-07-08T06:31:09;8.75;;;4.65;;
6823;SDS011;58633;49.470;11.004;2023-07-08T06:33:35;5.90;;;4.63;;
6823;SDS011;58633;49.470;11.004;2023-07-08T06:36:00;8.90;;;5.13;;
6823;SDS011;58633;49.470;11.004;2023-07-08T06:38:26;5.30;;;4.38;;
6823;SDS011;58633;49.470;11.004;2023-07-08T06:40:52;8.07;;;4.35;;
6823;SDS011;58633;49.470;11.004;2023-07-08T06:43:17;6.60;;;4.68;;
6823;SDS011;58633;49.470;11.004;2023-07-08T06:45:43;7.78;;;4.75;;
6823;SDS011;58633;49.470;11.004;2023-07-08T06:48:09;10.63;;;4.57;;
6823;SDS011;58633;49.470;11.004;2023-07-08T06:50:34;5.95;;;4.05;;
6823;SDS011;58633;49.470;11.004;2023-07-08T06:53:00;6.40;;;4.28;;
6823;SDS011;58633;49.470;11.004;2023-07-08T06:55:26;6.38;;;4.80;;
6823;SDS011;58633;49.470;11.004;2023-07-08T06:57:51;6.88;;;4.35;;
6823;SDS011;58633;49.470;11.004;2023-07-08T07:00:17;6.28;;;4.60;;
6823;SDS011;58633;49.470;11.004;2023-07-08T07:02:42;5.90;;;4.20;;
6823;SDS011;58633;49.470;11.004;2023-07-08T07:05:08;5.18;;;4.40;;
6823;SDS011;58633;49.470;11.004;2023-07-08T07:07:34;7.78;;;4.95;;
6823;SDS011;58633;49.470;11.004;2023-07-08T07:09:59;5.70;;;4.40;;
6823;SDS011;58633;49.470;11.004;2023-07-08T07:12:25;5.65;;;4.20;;
6823;SDS011;58633;49.470;11.004;2023-07-08T07:14:51;5.75;;;4.20;;
6823;SDS011;58633;49.470;11.004;2023-07-08T07:17:18;4.72;;;3.97;;
6823;SDS011;58633;49.470;11.004;2023-07-08T07:19:45;6.50;;;4.25;;
6823;SDS011;58633;49.470;11.004;2023-07-08T07:22:11;5.22;;;4.18;;
6823;SDS011;58633;49.470;11.004;2023-07-08T07:24:36;5.68;;;4.00;;
6823;SDS011;58633;49.470;11.004;2023-07-08T07:27:02;4.97;;;4.03;;
6823;SDS011;58633;49.470;11.004;2023-07-08T07:29:28;6.00;;;4.15;;
6823;SDS011;58633;49.470;11.004;2023-07-08T07:32:02;6.00;;;4.90;;
6823;SDS011;58633;49.470;11.004;2023-07-08T07:34:28;6.88;;;4.05;;
6823;SDS011;58633;49.470;11.004;2023-07-08T07:36:54;4.95;;;3.75;;
6823;SDS011;58633;49.470;11.004;2023-07-08T07:39:19;4.53;;;3.90;;
6823;SDS011;58633;49.470;11.004;2023-07-08T07:41:45;6.32;;;3.97;;
6823;SDS011;58633;49.470;11.004;2023-07-08T07:44:10;4.40;;;3.90;;
6823;SDS011;58633;49.470;11.004;2023-07-08T07:46:36;5.05;;;4.05;;
6823;SDS011;58633;49.470;11.004;2023-07-08T07:49:01;4.32;;;3.60;;
6823;SDS011;58633;49.470;11.004;2023-07-08T07:51:27;6.90;;;3.72;;
6823;SDS011;58633;49.470;11.004;2023-07-08T07:53:52;5.32;;;4.57;;
6823;SDS011;58633;49.470;11.004;2023-07-08T07:56:18;5.72;;;3.67;;
6823;SDS011;58633;49.470;11.004;2023-07-08T07:58:43;5.50;;;3.72;;
6823;SDS011;58633;49.470;11.004;2023-07-08T08:01:09;4.75;;;3.55;;
6823;SDS011;58633;49.470;11.004;2023-07-08T08:03:34;5.82;;;4.05;;
6823;SDS011;58633;49.470;11.004;2023-07-08T08:06:00;4.57;;;3.85;;
6823;SDS011;58633;49.470;11.004;2023-07-08T08:08:26;3.75;;;3.40;;
6823;SDS011;58633;49.470;11.004;2023-07-08T08:10:52;4.53;;;3.70;;
6823;SDS011;58633;49.470;11.004;2023-07-08T08:13:17;4.68;;;3.40;;
6823;SDS011;58633;49.470;11.004;2023-07-08T08:15:43;4.57;;;3.55;;
6823;SDS011;58633;49.470;11.004;2023-07-08T08:18:08;5.15;;;3.78;;
6823;SDS011;58633;49.470;11.004;2023-07-08T08:20:34;7.00;;;3.60;;
6823;SDS011;58633;49.470;11.004;2023-07-08T08:22:59;5.75;;;3.30;;
6823;SDS011;58633;49.470;11.004;2023-07-08T08:25:25;4.68;;;3.35;;
6823;SDS011;58633;49.470;11.004;2023-07-08T08:27:50;4.15;;;3.22;;
6823;SDS011;58633;49.470;11.004;2023-07-08T08:30:17;4.53;;;3.65;;
6823;SDS011;58633;49.470;11.004;2023-07-08T08:32:43;4.70;;;3.60;;
6823;SDS011;58633;49.470;11.004;2023-07-08T08:35:08;5.07;;;3.97;;
6823;SDS011;58633;49.470;11.004;2023-07-08T08:37:34;4.32;;;3.88;;
6823;SDS011;58633;49.470;11.004;2023-07-08T08:40:00;4.82;;;3.30;;
6823;SDS011;58633;49.470;11.004;2023-07-08T08:42:27;4.68;;;3.70;;
6823;SDS011;58633;49.470;11.004;2023-07-08T08:44:57;5.60;;;3.45;;
6823;SDS011;58633;49.470;11.004;2023-07-08T08:47:35;4.15;;;3.55;;
6823;SDS011;58633;49.470;11.004;2023-07-08T08:53:08;5.57;;;3.90;;
6823;SDS011;58633;49.470;11.004;2023-07-08T08:55:37;3.95;;;3.45;;
6823;SDS011;58633;49.470;11.004;2023-07-08T08:58:06;4.32;;;3.42;;
6823;SDS011;58633;49.470;11.004;2023-07-08T09:00:44;3.72;;;3.30;;
6823;SDS011;58633;49.470;11.004;2023-07-08T09:06:32;4.57;;;3.33;;
6823;SDS011;58633;49.470;11.004;2023-07-08T09:09:01;4.68;;;3.70;;
6823;SDS011;58633;49.470;11.004;2023-07-08T09:14:23;4.78;;;3.47;;
6823;SDS011;58633;49.470;11.004;2023-07-08T09:19:24;4.25;;;3.42;;
6823;SDS011;58633;49.470;11.004;2023-07-08T09:21:58;3.97;;;3.20;;
6823;SDS011;58633;49.470;11.004;2023-07-08T09:24:34;3.88;;;3.30;;
6823;SDS011;58633;49.470;11.004;2023-07-08T09:27:03;5.57;;;3.50;;
6823;SDS011;58633;49.470;11.004;2023-07-08T09:29:30;6.35;;;3.35;;
6823;SDS011;58633;49.470;11.004;2023-07-08T09:31:58;3.70;;;3.22;;
6823;SDS011;58633;49.470;11.004;2023-07-08T09:34:35;4.45;;;3.50;;
6823;SDS011;58633;49.470;11.004;2023-07-08T09:37:17;6.05;;;3.92;;
6823;SDS011;58633;49.470;11.004;2023-07-08T09:39:47;4.07;;;3.33;;
6823;SDS011;58633;49.470;11.004;2023-07-08T09:42:12;4.10;;;3.55;;
6823;SDS011;58633;49.470;11.004;2023-07-08T09:44:40;3.65;;;3.13;;
6823;SDS011;58633;49.470;11.004;2023-07-08T09:50:03;3.72;;;2.92;;
6823;SDS011;58633;49.470;11.004;2023-07-08T09:52:40;3.95;;;3.55;;
6823;SDS011;58633;49.470;11.004;2023-07-08T09:55:10;3.65;;;3.20;;
6823;SDS011;58633;49.470;11.004;2023-07-08T09:57:37;3.22;;;2.92;;
6823;SDS011;58633;49.470;11.004;2023-07-08T10:00:07;3.70;;;3.03;;
6823;SDS011;58633;49.470;11.004;2023-07-08T10:02:49;3.72;;;2.97;;
6823;SDS011;58633;49.470;11.004;2023-07-08T10:05:20;3.70;;;3.40;;
6823;SDS011;58633;49.470;11.004;2023-07-08T10:08:18;4.30;;;3.10;;
6823;SDS011;58633;49.470;11.004;2023-07-08T10:10:46;3.97;;;3.28;;
6823;SDS011;58633;49.470;11.004;2023-07-08T10:13:34;3.88;;;3.08;;
6823;SDS011;58633;49.470;11.004;2023-07-08T10:16:15;4.30;;;3.47;;
6823;SDS011;58633;49.470;11.004;2023-07-08T10:18:47;3.72;;;3.20;;
6823;SDS011;58633;49.470;11.004;2023-07-08T10:27:19;3.50;;;3.15;;
6823;SDS011;58633;49.470;11.004;2023-07-08T10:38:06;3.65;;;3.17;;
6823;SDS011;58633;49.470;11.004;2023-07-08T10:46:18;3.47;;;2.92;;
6823;SDS011;58633;49.470;11.004;2023-07-08T10:56:50;4.25;;;3.30;;
6823;SDS011;58633;49.470;11.004;2023-07-08T11:02:20;4.50;;;3.35;;
6823;SDS011;58633;49.470;11.004;2023-07-08T11:05:17;4.43;;;3.72;;
6823;SDS011;58633;49.470;11.004;2023-07-08T11:08:07;3.30;;;3.00;;
6823;SDS011;58633;49.470;11.004;2023-07-08T11:10:48;5.10;;;3.20;;
6823;SDS011;58633;49.470;11.004;2023-07-08T11:13:18;5.43;;;3.50;;
6823;SDS011;58633;49.470;11.004;2023-07-08T11:15:50;3.75;;;3.35;;
6823;SDS011;58633;49.470;11.004;2023-07-08T11:21:44;4.10;;;3.25;;
6823;SDS011;58633;49.470;11.004;2023-07-08T11:24:06;3.53;;;3.22;;
6823;SDS011;58633;49.470;11.004;2023-07-08T11:27:02;3.78;;;3.42;;
6823;SDS011;58633;49.470;11.004;2023-07-08T11:29:36;4.85;;;3.42;;
6823;SDS011;58633;49.470;11.004;2023-07-08T11:32:05;3.97;;;3.42;;
6823;SDS011;58633;49.470;11.004;2023-07-08T11:34:34;4.45;;;3.38;;
6823;SDS011;58633;49.470;11.004;2023-07-08T11:37:01;3.88;;;3.20;;
6823;SDS011;58633;49.470;11.004;2023-07-08T11:39:44;4.22;;;3.83;;
6823;SDS011;58633;49.470;11.004;2023-07-08T11:42:24;3.83;;;3.50;;
6823;SDS011;58633;49.470;11.004;2023-07-08T11:47:44;4.22;;;3.63;;
6823;SDS011;58633;49.470;11.004;2023-07-08T11:58:25;5.05;;;4.18;;
6823;SDS011;58633;49.470;11.004;2023-07-08T12:03:38;4.82;;;3.80;;
6823;SDS011;58633;49.470;11.004;2023-07-08T12:08:53;5.55;;;3.92;;
6823;SDS011;58633;49.470;11.004;2023-07-08T12:11:23;5.82;;;4.00;;
6823;SDS011;58633;49.470;11.004;2023-07-08T12:13:55;4.72;;;3.88;;
6823;SDS011;58633;49.470;11.004;2023-07-08T12:16:24;4.80;;;3.72;;
6823;SDS011;58633;49.470;11.004;2023-07-08T12:18:51;4.15;;;3.75;;
6823;SDS011;58633;49.470;11.004;2023-07-08T12:21:18;6.57;;;3.90;;
6823;SDS011;58633;49.470;11.004;2023-07-08T12:23:46;4.85;;;3.55;;
6823;SDS011;58633;49.470;11.004;2023-07-08T12:26:13;5.45;;;3.83;;
6823;SDS011;58633;49.470;11.004;2023-07-08T12:28:40;5.03;;;3.83;;
6823;SDS011;58633;49.470;11.004;2023-07-08T12:31:17;4.60;;;3.95;;
6823;SDS011;58633;49.470;11.004;2023-07-08T12:33:45;5.10;;;3.70;;
6823;SDS011;58633;49.470;11.004;2023-07-08T12:36:13;3.95;;;3.55;;
6823;SDS011;58633;49.470;11.004;2023-07-08T12:38:45;4.53;;;3.88;;
6823;SDS011;58633;49.470;11.004;2023-07-08T12:41:17;4.93;;;3.83;;
6823;SDS011;58633;49.470;11.004;2023-07-08T12:43:48;5.90;;;4.00;;
6823;SDS011;58633;49.470;11.004;2023-07-08T12:46:15;4.60;;;4.00;;
6823;SDS011;58633;49.470;11.004;2023-07-08T12:48:43;4.65;;;3.80;;
6823;SDS011;58633;49.470;11.004;2023-07-08T12:51:12;3.63;;;3.33;;
6823;SDS011;58633;49.470;11.004;2023-07-08T12:53:45;4.10;;;3.55;;
6823;SDS011;58633;49.470;11.004;2023-07-08T12:56:11;4.07;;;3.67;;
6823;SDS011;58633;49.470;11.004;2023-07-08T12:58:38;4.20;;;3.42;;
6823;SDS011;58633;49.470;11.004;2023-07-08T13:01:07;6.03;;;3.58;;
6823;SDS011;58633;49.470;11.004;2023-07-08T13:03:34;4.43;;;3.95;;
6823;SDS011;58633;49.470;11.004;2023-07-08T13:06:03;4.65;;;4.18;;
6823;SDS011;58633;49.470;11.004;2023-07-08T13:08:29;5.40;;;3.83;;
6823;SDS011;58633;49.470;11.004;2023-07-08T13:10:59;4.20;;;3.80;;
6823;SDS011;58633;49.470;11.004;2023-07-08T13:13:30;4.25;;;3.75;;
6823;SDS011;58633;49.470;11.004;2023-07-08T13:15:59;4.32;;;3.50;;
6823;SDS011;58633;49.470;11.004;2023-07-08T13:18:33;5.05;;;3.42;;
6823;SDS011;58633;49.470;11.004;2023-07-08T13:21:00;3.90;;;3.50;;
6823;SDS011;58633;49.470;11.004;2023-07-08T13:23:28;5.75;;;3.72;;
6823;SDS011;58633;49.470;11.004;2023-07-08T13:25:54;4.55;;;3.58;;
6823;SDS011;58633;49.470;11.004;2023-07-08T13:28:27;4.20;;;3.70;;
6823;SDS011;58633;49.470;11.004;2023-07-08T13:31:13;4.07;;;3.67;;
6823;SDS011;58633;49.470;11.004;2023-07-08T13:33:44;5.07;;;3.58;;
6823;SDS011;58633;49.470;11.004;2023-07-08T13:36:15;4.20;;;3.80;;
6823;SDS011;58633;49.470;11.004;2023-07-08T13:38:46;5.55;;;3.67;;
6823;SDS011;58633;49.470;11.004;2023-07-08T13:41:15;5.43;;;3.88;;
6823;SDS011;58633;49.470;11.004;2023-07-08T13:43:45;4.25;;;3.85;;
6823;SDS011;58633;49.470;11.004;2023-07-08T13:48:55;5.13;;;3.60;;
6823;SDS011;58633;49.470;11.004;2023-07-08T13:51:24;3.88;;;3.42;;
6823;SDS011;58633;49.470;11.004;2023-07-08T13:54:00;4.57;;;4.05;;
6823;SDS011;58633;49.470;11.004;2023-07-08T13:56:34;6.47;;;3.63;;
6823;SDS011;58633;49.470;11.004;2023-07-08T13:59:01;4.63;;;3.70;;
6823;SDS011;58633;49.470;11.004;2023-07-08T14:01:32;4.82;;;3.80;;
6823;SDS011;58633;49.470;11.004;2023-07-08T14:04:00;4.32;;;3.92;;
6823;SDS011;58633;49.470;11.004;2023-07-08T14:06:29;5.15;;;3.67;;
6823;SDS011;58633;49.470;11.004;2023-07-08T14:08:57;5.15;;;4.07;;
6823;SDS011;58633;49.470;11.004;2023-07-08T14:11:25;6.47;;;3.90;;
6823;SDS011;58633;49.470;11.004;2023-07-08T14:13:50;5.95;;;3.78;;
6823;SDS011;58633;49.470;11.004;2023-07-08T14:16:25;4.95;;;3.65;;
6823;SDS011;58633;49.470;11.004;2023-07-08T14:18:57;8.25;;;4.35;;
6823;SDS011;58633;49.470;11.004;2023-07-08T14:21:25;5.75;;;4.38;;
6823;SDS011;58633;49.470;11.004;2023-07-08T14:23:50;4.93;;;4.00;;
6823;SDS011;58633;49.470;11.004;2023-07-08T14:26:16;6.22;;;4.07;;
6823;SDS011;58633;49.470;11.004;2023-07-08T14:28:41;7.35;;;4.15;;
6823;SDS011;58633;49.470;11.004;2023-07-08T14:31:08;7.85;;;4.32;;
6823;SDS011;58633;49.470;11.004;2023-07-08T14:33:35;6.28;;;4.00;;
6823;SDS011;58633;49.470;11.004;2023-07-08T14:36:01;6.75;;;4.35;;
6823;SDS011;58633;49.470;11.004;2023-07-08T14:38:26;5.55;;;3.78;;
6823;SDS011;58633;49.470;11.004;2023-07-08T14:40:52;10.57;;;4.32;;
6823;SDS011;58633;49.470;11.004;2023-07-08T14:45:49;6.78;;;4.68;;
6823;SDS011;58633;49.470;11.004;2023-07-08T14:48:16;7.15;;;4.30;;
6823;SDS011;58633;49.470;11.004;2023-07-08T14:50:42;5.40;;;4.35;;
6823;SDS011;58633;49.470;11.004;2023-07-08T14:53:08;5.65;;;4.47;;
6823;SDS011;58633;49.470;11.004;2023-07-08T14:55:33;4.35;;;3.95;;
6823;SDS011;58633;49.470;11.004;2023-07-08T14:58:00;7.60;;;4.38;;
6823;SDS011;58633;49.470;11.004;2023-07-08T15:00:28;4.47;;;4.00;;
6823;SDS011;58633;49.470;11.004;2023-07-08T15:02:53;6.82;;;4.15;;
6823;SDS011;58633;49.470;11.004;2023-07-08T15:05:23;5.32;;;4.20;;
6823;SDS011;58633;49.470;11.004;2023-07-08T15:07:53;7.00;;;4.25;;
6823;SDS011;58633;49.470;11.004;2023-07-08T15:10:22;4.60;;;3.95;;
6823;SDS011;58633;49.470;11.004;2023-07-08T15:12:51;5.47;;;4.15;;
6823;SDS011;58633;49.470;11.004;2023-07-08T15:15:29;6.28;;;4.57;;
6823;SDS011;58633;49.470;11.004;2023-07-08T15:17:57;5.75;;;4.30;;
6823;SDS011;58633;49.470;11.004;2023-07-08T15:20:23;5.25;;;4.05;;
6823;SDS011;58633;49.470;11.004;2023-07-08T15:22:49;5.25;;;3.97;;
6823;SDS011;58633;49.470;11.004;2023-07-08T15:25:15;4.88;;;4.18;;
6823;SDS011;58633;49.470;11.004;2023-07-08T15:27:45;6.25;;;5.00;;
6823;SDS011;58633;49.470;11.004;2023-07-08T15:30:18;5.35;;;3.80;;
6823;SDS011;58633;49.470;11.004;2023-07-08T15:32:46;8.57;;;4.28;;
6823;SDS011;58633;49.470;11.004;2023-07-08T15:35:12;4.78;;;4.07;;
6823;SDS011;58633;49.470;11.004;2023-07-08T15:37:40;5.38;;;4.07;;
6823;SDS011;58633;49.470;11.004;2023-07-08T15:40:09;6.90;;;4.63;;
6823;SDS011;58633;49.470;11.004;2023-07-08T15:42:38;5.97;;;4.40;;
6823;SDS011;58633;49.470;11.004;2023-07-08T15:45:19;6.22;;;4.22;;
6823;SDS011;58633;49.470;11.004;2023-07-08T15:47:45;4.78;;;4.22;;
6823;SDS011;58633;49.470;11.004;2023-07-08T15:50:12;5.28;;;4.30;;
6823;SDS011;58633;49.470;11.004;2023-07-08T15:52:40;5.35;;;4.47;;
6823;SDS011;58633;49.470;11.004;2023-07-08T15:55:10;4.82;;;4.05;;
6823;SDS011;58633;49.470;11.004;2023-07-08T15:57:39;5.15;;;4.10;;
6823;SDS011;58633;49.470;11.004;2023-07-08T16:00:11;8.48;;;4.68;;
6823;SDS011;58633;49.470;11.004;2023-07-08T16:02:50;4.80;;;3.80;;
6823;SDS011;58633;49.470;11.004;2023-07-08T16:05:21;5.88;;;4.35;;
6823;SDS011;58633;49.470;11.004;2023-07-08T16:07:47;6.65;;;4.63;;
6823;SDS011;58633;49.470;11.004;2023-07-08T16:10:14;5.10;;;4.40;;